sensor_id;sensor_type;location;lat;lon;timestamp;pressure;altitude;pressure_sealevel;temperature;humidity
42887;BME280;29032;56.028;92.904;2023-06-22T00:04:38;98446.69;;;18.40;68.53
42887;BME280;29032;56.028;92.904;2023-06-22T00:09:53;98445.28;;;18.61;68.38
42887;BME280;29032;56.028;92.904;2023-06-22T00:14:58;98455.06;;;18.50;68.55
42887;BME280;29032;56.028;92.904;2023-06-22T00:20:01;98450.19;;;18.51;68.77
42887;BME280;29032;56.028;92.904;2023-06-22T00:25:06;98459.59;;;18.65;68.31
42887;BME280;29032;56.028;92.904;2023-06-22T00:30:17;98446.63;;;18.60;68.09
42887;BME280;29032;56.028;92.904;2023-06-22T00:35:19;98444.19;;;18.66;68.48
42887;BME280;29032;56.028;92.904;2023-06-22T00:40:25;98441.13;;;18.83;68.26
42887;BME280;29032;56.028;92.904;2023-06-22T00:45:45;98443.41;;;18.96;67.78
42887;BME280;29032;56.028;92.904;2023-06-22T00:56:30;98448.44;;;18.77;68.77
42887;BME280;29032;56.028;92.904;2023-06-22T01:01:32;98461.88;;;18.78;67.85
42887;BME280;29032;56.028;92.904;2023-06-22T01:06:43;98450.63;;;18.78;68.12
42887;BME280;29032;56.028;92.904;2023-06-22T01:12:15;98466.50;;;18.73;67.78
42887;BME280;29032;56.028;92.904;2023-06-22T01:17:19;98472.66;;;18.60;67.93
42887;BME280;29032;56.028;92.904;2023-06-22T01:22:30;98467.44;;;18.66;68.02
42887;BME280;29032;56.028;92.904;2023-06-22T01:27:45;98456.03;;;18.64;68.19
42887;BME280;29032;56.028;92.904;2023-06-22T01:33:02;98456.94;;;18.67;68.87
42887;BME280;29032;56.028;92.904;2023-06-22T01:38:09;98453.84;;;18.84;68.57
42887;BME280;29032;56.028;92.904;2023-06-22T01:49:56;98464.03;;;19.22;66.94
42887;BME280;29032;56.028;92.904;2023-06-22T02:02:46;98460.88;;;19.28;66.91
42887;BME280;29032;56.028;92.904;2023-06-22T02:07:56;98477.38;;;19.22;66.82
42887;BME280;29032;56.028;92.904;2023-06-22T02:13:01;98461.84;;;19.21;66.65
42887;BME280;29032;56.028;92.904;2023-06-22T02:18:04;98468.94;;;19.22;66.49
42887;BME280;29032;56.028;92.904;2023-06-22T02:23:08;98461.03;;;19.30;66.83
42887;BME280;29032;56.028;92.904;2023-06-22T02:28:29;98464.09;;;19.34;66.03
42887;BME280;29032;56.028;92.904;2023-06-22T02:33:31;98469.06;;;19.45;65.89
42887;BME280;29032;56.028;92.904;2023-06-22T02:38:35;98467.50;;;19.54;65.53
42887;BME280;29032;56.028;92.904;2023-06-22T02:43:37;98465.44;;;19.54;65.75
42887;BME280;29032;56.028;92.904;2023-06-22T02:48:39;98466.88;;;19.55;65.52
42887;BME280;29032;56.028;92.904;2023-06-22T02:53:43;98464.72;;;19.66;65.38
42887;BME280;29032;56.028;92.904;2023-06-22T03:04:12;98470.88;;;19.74;65.60
42887;BME280;29032;56.028;92.904;2023-06-22T03:09:53;98465.03;;;19.93;65.12
42887;BME280;29032;56.028;92.904;2023-06-22T03:14:55;98450.03;;;19.79;65.00
42887;BME280;29032;56.028;92.904;2023-06-22T03:19:57;98466.47;;;19.82;65.40
42887;BME280;29032;56.028;92.904;2023-06-22T03:25:00;98456.06;;;19.85;65.76
42887;BME280;29032;56.028;92.904;2023-06-22T03:35:23;98464.50;;;19.85;65.09
42887;BME280;29032;56.028;92.904;2023-06-22T03:40:26;98466.22;;;19.90;65.28
42887;BME280;29032;56.028;92.904;2023-06-22T03:45:29;98456.19;;;19.87;65.07
42887;BME280;29032;56.028;92.904;2023-06-22T03:50:32;98463.41;;;19.90;64.20
42887;BME280;29032;56.028;92.904;2023-06-22T03:55:36;98466.00;;;19.98;63.72
42887;BME280;29032;56.028;92.904;2023-06-22T04:00:38;98446.66;;;20.04;63.51
42887;BME280;29032;56.028;92.904;2023-06-22T04:11:02;98456.75;;;20.30;64.82
42887;BME280;29032;56.028;92.904;2023-06-22T04:16:04;98454.28;;;20.36;64.52
42887;BME280;29032;56.028;92.904;2023-06-22T04:21:24;98456.72;;;20.65;63.47
42887;BME280;29032;56.028;92.904;2023-06-22T04:26:28;98445.78;;;20.72;61.96
42887;BME280;29032;56.028;92.904;2023-06-22T04:31:48;98441.72;;;20.75;61.13
42887;BME280;29032;56.028;92.904;2023-06-22T04:36:50;98434.88;;;20.78;60.44
42887;BME280;29032;56.028;92.904;2023-06-22T04:41:54;98441.28;;;21.04;61.43
42887;BME280;29032;56.028;92.904;2023-06-22T04:47:14;98435.53;;;21.13;61.40
42887;BME280;29032;56.028;92.904;2023-06-22T04:52:16;98442.34;;;21.22;60.43
42887;BME280;29032;56.028;92.904;2023-06-22T04:57:20;98437.59;;;21.38;59.55
42887;BME280;29032;56.028;92.904;2023-06-22T05:02:22;98426.03;;;21.46;57.34
42887;BME280;29032;56.028;92.904;2023-06-22T05:07:24;98426.69;;;21.58;59.00
42887;BME280;29032;56.028;92.904;2023-06-22T05:12:28;98423.09;;;21.83;56.52
42887;BME280;29032;56.028;92.904;2023-06-22T05:17:29;98414.88;;;22.01;55.96
42887;BME280;29032;56.028;92.904;2023-06-22T05:22:32;98411.53;;;22.18;55.89
42887;BME280;29032;56.028;92.904;2023-06-22T05:27:35;98408.31;;;22.38;52.03
42887;BME280;29032;56.028;92.904;2023-06-22T05:32:37;98406.63;;;22.46;52.41
42887;BME280;29032;56.028;92.904;2023-06-22T05:37:39;98398.78;;;22.45;50.30
42887;BME280;29032;56.028;92.904;2023-06-22T05:42:43;98404.75;;;22.37;50.71
42887;BME280;29032;56.028;92.904;2023-06-22T05:47:45;98394.25;;;22.40;50.69
42887;BME280;29032;56.028;92.904;2023-06-22T05:52:47;98382.78;;;22.36;49.33
42887;BME280;29032;56.028;92.904;2023-06-22T05:57:50;98386.63;;;22.56;47.48
42887;BME280;29032;56.028;92.904;2023-06-22T06:08:13;98363.34;;;23.30;46.31
42887;BME280;29032;56.028;92.904;2023-06-22T06:13:16;98366.53;;;23.68;45.54
42887;BME280;29032;56.028;92.904;2023-06-22T06:18:36;98364.69;;;23.59;44.28
42887;BME280;29032;56.028;92.904;2023-06-22T06:29:18;98369.91;;;23.19;46.41
42887;BME280;29032;56.028;92.904;2023-06-22T06:34:20;98354.13;;;22.84;45.54
42887;BME280;29032;56.028;92.904;2023-06-22T06:45:03;98348.38;;;22.82;48.15
42887;BME280;29032;56.028;92.904;2023-06-22T06:50:06;98349.72;;;22.81;47.11
42887;BME280;29032;56.028;92.904;2023-06-22T06:55:09;98342.06;;;22.84;47.02
42887;BME280;29032;56.028;92.904;2023-06-22T07:00:31;98328.63;;;23.14;47.60
42887;BME280;29032;56.028;92.904;2023-06-22T07:05:33;98315.28;;;23.17;46.57
42887;BME280;29032;56.028;92.904;2023-06-22T07:10:54;98319.34;;;23.27;45.21
42887;BME280;29032;56.028;92.904;2023-06-22T07:15:57;98308.59;;;23.40;45.80
42887;BME280;29032;56.028;92.904;2023-06-22T07:20:59;98303.13;;;23.44;43.30
42887;BME280;29032;56.028;92.904;2023-06-22T07:26:01;98294.91;;;23.50;43.95
42887;BME280;29032;56.028;92.904;2023-06-22T07:31:05;98304.03;;;23.64;44.29
42887;BME280;29032;56.028;92.904;2023-06-22T07:36:07;98286.88;;;23.60;42.62
42887;BME280;29032;56.028;92.904;2023-06-22T07:41:09;98263.13;;;23.67;42.49
42887;BME280;29032;56.028;92.904;2023-06-22T07:46:31;98249.97;;;23.91;41.58
42887;BME280;29032;56.028;92.904;2023-06-22T07:51:33;98253.38;;;23.88;43.22
42887;BME280;29032;56.028;92.904;2023-06-22T07:56:36;98263.75;;;23.99;39.21
42887;BME280;29032;56.028;92.904;2023-06-22T08:01:40;98256.47;;;24.10;37.22
42887;BME280;29032;56.028;92.904;2023-06-22T08:07:00;98258.44;;;24.23;39.98
42887;BME280;29032;56.028;92.904;2023-06-22T08:12:02;98251.13;;;24.18;38.76
42887;BME280;29032;56.028;92.904;2023-06-22T08:22:26;98250.09;;;24.45;38.65
42887;BME280;29032;56.028;92.904;2023-06-22T08:27:46;98247.91;;;24.79;37.66
42887;BME280;29032;56.028;92.904;2023-06-22T08:33:26;98235.88;;;24.98;36.32
42887;BME280;29032;56.028;92.904;2023-06-22T08:43:48;98224.72;;;25.22;36.22
42887;BME280;29032;56.028;92.904;2023-06-22T08:49:10;98310.31;;;25.15;36.53
42887;BME280;29032;56.028;92.904;2023-06-22T08:54:12;98383.88;;;24.08;35.35
42887;BME280;29032;56.028;92.904;2023-06-22T08:59:14;98380.47;;;22.89;36.78
42887;BME280;29032;56.028;92.904;2023-06-22T09:04:18;98368.56;;;22.20;38.70
42887;BME280;29032;56.028;92.904;2023-06-22T09:09:21;98358.75;;;21.82;38.94
42887;BME280;29032;56.028;92.904;2023-06-22T09:25:24;98384.03;;;21.27;39.71
42887;BME280;29032;56.028;92.904;2023-06-22T09:41:26;98451.09;;;21.14;40.95
42887;BME280;29032;56.028;92.904;2023-06-22T09:46:28;98451.66;;;20.76;41.38
42887;BME280;29032;56.028;92.904;2023-06-22T09:51:30;98486.72;;;20.73;42.74
42887;BME280;29032;56.028;92.904;2023-06-22T09:56:52;98524.44;;;20.91;43.18
42887;BME280;29032;56.028;92.904;2023-06-22T10:01:54;98563.09;;;20.53;45.38
42887;BME280;29032;56.028;92.904;2023-06-22T10:06:57;98593.00;;;20.13;49.71
42887;BME280;29032;56.028;92.904;2023-06-22T10:12:19;98608.84;;;19.64;51.34
42887;BME280;29032;56.028;92.904;2023-06-22T10:17:24;98590.44;;;19.30;53.42
42887;BME280;29032;56.028;92.904;2023-06-22T10:22:26;98564.84;;;19.05;54.01
42887;BME280;29032;56.028;92.904;2023-06-22T10:27:31;98522.84;;;18.97;57.20
42887;BME280;29032;56.028;92.904;2023-06-22T10:32:51;98530.81;;;19.00;57.42
42887;BME280;29032;56.028;92.904;2023-06-22T10:38:11;98511.28;;;19.24;56.08
42887;BME280;29032;56.028;92.904;2023-06-22T10:43:33;98508.16;;;19.63;56.29
42887;BME280;29032;56.028;92.904;2023-06-22T10:54:14;98548.34;;;19.75;55.46
42887;BME280;29032;56.028;92.904;2023-06-22T11:04:55;98534.09;;;20.18;53.00
42887;BME280;29032;56.028;92.904;2023-06-22T11:09:58;98524.44;;;20.21;52.29
42887;BME280;29032;56.028;92.904;2023-06-22T11:15:00;98521.84;;;20.13;55.57
42887;BME280;29032;56.028;92.904;2023-06-22T11:20:06;98518.09;;;20.32;52.04
42887;BME280;29032;56.028;92.904;2023-06-22T11:25:08;98508.25;;;20.09;56.81
42887;BME280;29032;56.028;92.904;2023-06-22T11:30:11;98507.66;;;20.23;55.08
42887;BME280;29032;56.028;92.904;2023-06-22T11:35:15;98521.88;;;20.25;57.14
42887;BME280;29032;56.028;92.904;2023-06-22T11:40:18;98518.69;;;20.19;56.39
42887;BME280;29032;56.028;92.904;2023-06-22T11:45:39;98523.63;;;20.30;56.68
42887;BME280;29032;56.028;92.904;2023-06-22T11:51:01;98517.03;;;19.92;58.21
42887;BME280;29032;56.028;92.904;2023-06-22T11:56:03;98498.28;;;19.85;56.79
42887;BME280;29032;56.028;92.904;2023-06-22T12:01:24;98509.81;;;19.89;55.16
42887;BME280;29032;56.028;92.904;2023-06-22T12:06:27;98514.88;;;20.02;54.02
42887;BME280;29032;56.028;92.904;2023-06-22T12:11:29;98512.56;;;20.10;53.30
42887;BME280;29032;56.028;92.904;2023-06-22T12:16:31;98514.50;;;20.20;54.43
42887;BME280;29032;56.028;92.904;2023-06-22T12:21:53;98520.22;;;20.43;55.21
42887;BME280;29032;56.028;92.904;2023-06-22T12:26:55;98516.59;;;20.19;52.85
42887;BME280;29032;56.028;92.904;2023-06-22T12:31:57;98509.34;;;20.04;55.01
42887;BME280;29032;56.028;92.904;2023-06-22T12:37:19;98506.44;;;20.26;56.20
42887;BME280;29032;56.028;92.904;2023-06-22T12:42:22;98512.28;;;20.06;58.20
42887;BME280;29032;56.028;92.904;2023-06-22T12:47:24;98503.25;;;20.08;57.78
42887;BME280;29032;56.028;92.904;2023-06-22T12:52:27;98502.97;;;20.04;59.11
42887;BME280;29032;56.028;92.904;2023-06-22T12:57:48;98520.84;;;19.97;56.48
42887;BME280;29032;56.028;92.904;2023-06-22T13:02:50;98519.03;;;20.01;53.80
42887;BME280;29032;56.028;92.904;2023-06-22T13:07:53;98521.63;;;20.09;53.13
42887;BME280;29032;56.028;92.904;2023-06-22T13:12:55;98508.16;;;20.07;53.15
42887;BME280;29032;56.028;92.904;2023-06-22T13:17:57;98513.63;;;20.05;54.18
42887;BME280;29032;56.028;92.904;2023-06-22T13:23:19;98522.97;;;20.08;53.61
42887;BME280;29032;56.028;92.904;2023-06-22T13:28:22;98499.06;;;19.97;55.38
42887;BME280;29032;56.028;92.904;2023-06-22T13:33:42;98504.31;;;19.91;55.78
42887;BME280;29032;56.028;92.904;2023-06-22T13:38:46;98505.41;;;19.86;55.91
42887;BME280;29032;56.028;92.904;2023-06-22T13:43:48;98495.09;;;19.79;56.01
42887;BME280;29032;56.028;92.904;2023-06-22T13:48:51;98506.97;;;19.77;55.26
42887;BME280;29032;56.028;92.904;2023-06-22T13:53:55;98514.56;;;19.75;55.18
42887;BME280;29032;56.028;92.904;2023-06-22T13:58:57;98523.44;;;19.60;55.05
42887;BME280;29032;56.028;92.904;2023-06-22T14:03:59;98532.44;;;19.46;55.52
42887;BME280;29032;56.028;92.904;2023-06-22T14:09:02;98532.22;;;19.33;56.65
42887;BME280;29032;56.028;92.904;2023-06-22T14:14:04;98533.50;;;19.20;56.19
42887;BME280;29032;56.028;92.904;2023-06-22T14:19:07;98529.09;;;19.17;56.64
42887;BME280;29032;56.028;92.904;2023-06-22T14:24:10;98534.84;;;19.19;56.81
42887;BME280;29032;56.028;92.904;2023-06-22T14:29:12;98539.41;;;19.02;55.96
42887;BME280;29032;56.028;92.904;2023-06-22T14:34:15;98546.09;;;18.97;56.92
42887;BME280;29032;56.028;92.904;2023-06-22T14:39:18;98554.81;;;19.01;56.61
42887;BME280;29032;56.028;92.904;2023-06-22T14:44:21;98558.50;;;18.94;55.94
42887;BME280;29032;56.028;92.904;2023-06-22T14:49:23;98562.41;;;18.89;55.88
42887;BME280;29032;56.028;92.904;2023-06-22T14:54:26;98556.38;;;18.83;57.53
42887;BME280;29032;56.028;92.904;2023-06-22T14:59:29;98554.50;;;18.76;55.58
42887;BME280;29032;56.028;92.904;2023-06-22T15:04:31;98551.69;;;18.76;55.44
42887;BME280;29032;56.028;92.904;2023-06-22T15:09:53;98535.81;;;18.59;56.33
42887;BME280;29032;56.028;92.904;2023-06-22T15:15:13;98559.00;;;18.60;56.33
42887;BME280;29032;56.028;92.904;2023-06-22T15:20:15;98563.59;;;18.55;57.39
42887;BME280;29032;56.028;92.904;2023-06-22T15:25:19;98547.47;;;18.56;58.43
42887;BME280;29032;56.028;92.904;2023-06-22T15:30:21;98552.50;;;18.57;56.30
42887;BME280;29032;56.028;92.904;2023-06-22T15:35:23;98566.38;;;18.65;55.73
42887;BME280;29032;56.028;92.904;2023-06-22T15:40:27;98588.09;;;18.74;56.17
42887;BME280;29032;56.028;92.904;2023-06-22T15:45:29;98604.66;;;18.70;55.75
42887;BME280;29032;56.028;92.904;2023-06-22T15:50:33;98602.16;;;18.74;55.52
42887;BME280;29032;56.028;92.904;2023-06-22T15:55:56;98596.97;;;18.70;55.07
42887;BME280;29032;56.028;92.904;2023-06-22T16:00:58;98595.38;;;18.67;55.07
42887;BME280;29032;56.028;92.904;2023-06-22T16:11:40;98600.38;;;18.69;56.98
42887;BME280;29032;56.028;92.904;2023-06-22T16:17:19;98604.78;;;18.82;54.71
42887;BME280;29032;56.028;92.904;2023-06-22T16:22:21;98611.81;;;18.61;54.64
42887;BME280;29032;56.028;92.904;2023-06-22T16:27:25;98604.25;;;18.64;54.64
42887;BME280;29032;56.028;92.904;2023-06-22T16:32:27;98602.16;;;18.64;54.91
42887;BME280;29032;56.028;92.904;2023-06-22T16:37:29;98608.38;;;18.63;56.18
42887;BME280;29032;56.028;92.904;2023-06-22T16:42:32;98597.47;;;18.57;56.64
42887;BME280;29032;56.028;92.904;2023-06-22T16:47:34;98586.69;;;18.44;57.91
42887;BME280;29032;56.028;92.904;2023-06-22T16:52:36;98598.00;;;18.25;57.75
42887;BME280;29032;56.028;92.904;2023-06-22T16:57:40;98610.13;;;18.08;58.57
42887;BME280;29032;56.028;92.904;2023-06-22T17:02:45;98611.19;;;17.83;59.32
42887;BME280;29032;56.028;92.904;2023-06-22T17:07:49;98607.63;;;17.63;60.52
42887;BME280;29032;56.028;92.904;2023-06-22T17:12:55;98616.47;;;17.60;60.74
42887;BME280;29032;56.028;92.904;2023-06-22T17:23:28;98615.09;;;17.22;61.36
42887;BME280;29032;56.028;92.904;2023-06-22T17:33:58;98624.97;;;17.23;62.29
42887;BME280;29032;56.028;92.904;2023-06-22T17:39:01;98617.91;;;17.22;61.55
42887;BME280;29032;56.028;92.904;2023-06-22T17:44:04;98613.63;;;17.21;62.14
42887;BME280;29032;56.028;92.904;2023-06-22T17:49:11;98604.94;;;17.36;62.05
42887;BME280;29032;56.028;92.904;2023-06-22T17:54:13;98600.81;;;17.37;60.35
42887;BME280;29032;56.028;92.904;2023-06-22T17:59:16;98607.59;;;17.44;61.12
42887;BME280;29032;56.028;92.904;2023-06-22T18:04:20;98616.59;;;17.52;60.32
42887;BME280;29032;56.028;92.904;2023-06-22T18:09:22;98613.06;;;17.52;60.23
42887;BME280;29032;56.028;92.904;2023-06-22T18:14:24;98630.94;;;17.47;61.18
42887;BME280;29032;56.028;92.904;2023-06-22T18:24:50;98620.44;;;17.37;60.48
42887;BME280;29032;56.028;92.904;2023-06-22T18:29:55;98614.81;;;17.28;61.18
42887;BME280;29032;56.028;92.904;2023-06-22T18:34:59;98610.69;;;17.19;61.82
42887;BME280;29032;56.028;92.904;2023-06-22T18:40:01;98603.38;;;16.97;61.33
42887;BME280;29032;56.028;92.904;2023-06-22T18:45:21;98609.44;;;16.93;61.04
42887;BME280;29032;56.028;92.904;2023-06-22T18:50:41;98598.06;;;16.91;61.71
42887;BME280;29032;56.028;92.904;2023-06-22T18:55:44;98597.28;;;16.81;62.81
42887;BME280;29032;56.028;92.904;2023-06-22T19:00:50;98607.50;;;16.96;61.42
42887;BME280;29032;56.028;92.904;2023-06-22T19:05:54;98614.28;;;16.93;62.13
42887;BME280;29032;56.028;92.904;2023-06-22T19:11:11;98616.38;;;17.02;60.77
42887;BME280;29032;56.028;92.904;2023-06-22T19:16:12;98622.03;;;17.21;59.38
42887;BME280;29032;56.028;92.904;2023-06-22T19:21:22;98597.34;;;17.00;61.13
42887;BME280;29032;56.028;92.904;2023-06-22T19:26:24;98599.50;;;16.82;61.49
42887;BME280;29032;56.028;92.904;2023-06-22T19:31:26;98609.41;;;16.83;60.17
42887;BME280;29032;56.028;92.904;2023-06-22T19:36:32;98611.03;;;16.87;60.87
42887;BME280;29032;56.028;92.904;2023-06-22T19:41:35;98597.72;;;16.77;61.17
42887;BME280;29032;56.028;92.904;2023-06-22T19:46:37;98596.06;;;16.74;60.98
42887;BME280;29032;56.028;92.904;2023-06-22T19:51:40;98599.31;;;16.71;61.89
42887;BME280;29032;56.028;92.904;2023-06-22T19:56:43;98609.03;;;16.70;61.24
42887;BME280;29032;56.028;92.904;2023-06-22T20:01:46;98606.50;;;16.64;62.11
42887;BME280;29032;56.028;92.904;2023-06-22T20:07:03;98612.19;;;16.83;60.70
42887;BME280;29032;56.028;92.904;2023-06-22T20:22:50;98614.09;;;16.54;61.73
42887;BME280;29032;56.028;92.904;2023-06-22T20:27:52;98622.03;;;16.48;61.17
42887;BME280;29032;56.028;92.904;2023-06-22T20:33:01;98610.03;;;16.38;61.58
42887;BME280;29032;56.028;92.904;2023-06-22T20:38:05;98601.91;;;16.32;60.81
42887;BME280;29032;56.028;92.904;2023-06-22T20:43:09;98601.84;;;16.22;61.62
42887;BME280;29032;56.028;92.904;2023-06-22T20:48:16;98619.66;;;16.17;61.38
42887;BME280;29032;56.028;92.904;2023-06-22T20:53:19;98638.19;;;16.13;61.26
42887;BME280;29032;56.028;92.904;2023-06-22T20:58:21;98648.81;;;15.97;61.58
42887;BME280;29032;56.028;92.904;2023-06-22T21:03:41;98659.91;;;16.05;61.43
42887;BME280;29032;56.028;92.904;2023-06-22T21:14:05;98657.69;;;15.51;62.88
42887;BME280;29032;56.028;92.904;2023-06-22T21:19:07;98651.25;;;15.41;62.95
42887;BME280;29032;56.028;92.904;2023-06-22T21:24:29;98652.97;;;15.54;62.97
42887;BME280;29032;56.028;92.904;2023-06-22T21:29:31;98654.03;;;15.24;63.62
42887;BME280;29032;56.028;92.904;2023-06-22T21:34:33;98668.56;;;15.22;63.83
42887;BME280;29032;56.028;92.904;2023-06-22T21:39:37;98689.38;;;15.29;63.73
42887;BME280;29032;56.028;92.904;2023-06-22T21:44:39;98699.81;;;15.28;63.47
42887;BME280;29032;56.028;92.904;2023-06-22T21:49:42;98692.34;;;15.31;63.64
42887;BME280;29032;56.028;92.904;2023-06-22T21:54:45;98704.19;;;15.39;63.72
42887;BME280;29032;56.028;92.904;2023-06-22T21:59:47;98694.84;;;15.44;63.52
42887;BME280;29032;56.028;92.904;2023-06-22T22:05:07;98691.78;;;15.74;63.29
42887;BME280;29032;56.028;92.904;2023-06-22T22:10:11;98701.16;;;15.69;63.96
42887;BME280;29032;56.028;92.904;2023-06-22T22:15:13;98696.84;;;15.68;62.74
42887;BME280;29032;56.028;92.904;2023-06-22T22:20:15;98675.47;;;15.63;64.04
42887;BME280;29032;56.028;92.904;2023-06-22T22:30:57;98681.81;;;15.81;62.79
42887;BME280;29032;56.028;92.904;2023-06-22T22:36:18;98684.78;;;15.83;62.70
42887;BME280;29032;56.028;92.904;2023-06-22T22:41:21;98691.03;;;15.91;63.11
42887;BME280;29032;56.028;92.904;2023-06-22T22:52:02;98683.88;;;15.98;63.11
42887;BME280;29032;56.028;92.904;2023-06-22T22:57:24;98698.34;;;16.04;63.05
42887;BME280;29032;56.028;92.904;2023-06-22T23:02:26;98743.13;;;16.04;62.87
42887;BME280;29032;56.028;92.904;2023-06-22T23:07:28;98756.63;;;15.98;62.14
42887;BME280;29032;56.028;92.904;2023-06-22T23:12:32;98769.72;;;15.95;62.07
42887;BME280;29032;56.028;92.904;2023-06-22T23:17:34;98766.84;;;15.86;63.12
42887;BME280;29032;56.028;92.904;2023-06-22T23:22:36;98755.66;;;15.86;62.48
42887;BME280;29032;56.028;92.904;2023-06-22T23:27:40;98746.59;;;15.95;62.07
42887;BME280;29032;56.028;92.904;2023-06-22T23:32:42;98741.00;;;15.95;61.84
42887;BME280;29032;56.028;92.904;2023-06-22T23:37:44;98733.94;;;15.94;61.83
42887;BME280;29032;56.028;92.904;2023-06-22T23:43:06;98742.81;;;16.17;61.69
42887;BME280;29032;56.028;92.904;2023-06-22T23:48:08;98753.78;;;16.06;61.53
42887;BME280;29032;56.028;92.904;2023-06-22T23:53:29;98763.06;;;16.08;61.77
